• Join FlightAware (Why Join?)
  • Login
  • US Flag 
08:25AM EST


 

Airport Tracker/Info


-or-


 

Live Flight TrackerFlight Track Log ✈ AAY800 ✈ 17-Apr-2014 ✈ KPIE - KTOL

Flight Track Log - Related Links

Times and Time Zones

All times are in EDT time to prevent confusion due to time zone crossing. See the AAY800 flight status page for this flight to view local times or setup timezone preferences in your user account.

Time Position Orientation Groundspeed Altitude Reporting Facility
EDT Latitude Longitude Course Direction KTS MPH feet Rate Location/Type
05:19PM 28.0185 -82.6667 North  Level FlightAware Approximate
05:23PM 28.5917 -82.6500 North  Level FlightAware Approximate
05:23PM 27.9500 -82.7000 North 156 180 1,600  Level Tampa TRACON
05:24PM 28.0333 -82.6667 19° North 266 306 3,300 1,560 Climbing Tampa TRACON
05:26PM 28.8153 -82.6333 North  Level FlightAware Approximate
05:26PM 28.1167 -82.6667 360° North 284 327 6,000  Level Tampa TRACON
05:27PM 28.9410 -82.6285 North  Level FlightAware Approximate
05:27PM 28.2000 -82.6667 360° North 290 334 8,900  Level Tampa TRACON
05:27PM 28.2833 -82.6667 360° North 308 354 10,700 1,860 Climbing Tampa TRACON
05:28PM 29.0665 -82.6181 North  Level FlightAware Approximate
05:28PM 28.3833 -82.6500 North 370 426 12,500  Level Tampa TRACON
05:30PM 28.5044 -82.6469 North 376 433 15,300 2,100 Climbing Jacksonville Center
05:31PM 28.6172 -82.6419 North 383 441 17,600 1,920 Climbing Jacksonville Center
05:32PM 28.7236 -82.6369 North 383 441 19,200 1,860 Climbing Jacksonville Center
05:33PM 28.8531 -82.6317 North 400 460 21,400 1,860 Climbing Jacksonville Center
05:34PM 28.9697 -82.6244 North 410 472 23,000 1,800 Climbing Jacksonville Center
05:35PM 29.0908 -82.6192 North 416 479 25,100 1,320 Climbing Jacksonville Center
05:41PM 29.8266 -82.7628 356° North 458 527 32,800 1,200 Climbing FlightAware ADS-B (KMCO)
05:41PM 29.8446 -82.7632 North 462 532 32,900 1,080 Climbing FlightAware ADS-B (KMCO)
05:42PM 29.9161 -82.7531 North 467 537 33,500 1,200 Climbing FlightAware ADS-B (KMCO)
05:42PM 30.0050 -82.7397 North 462 532 34,400 1,320 Climbing FlightAware ADS-B (KMCO)
05:43PM 30.1017 -82.7252 North 453 521 35,500 1,200 Climbing FlightAware ADS-B (KMCO)
05:44PM 30.1744 -82.7144 North 449 517 36,100 720 Climbing FlightAware ADS-B (KMCO)
05:44PM 30.2372 -82.7050 North 452 520 36,300 480 Climbing FlightAware ADS-B (KMCO)
05:45PM 30.3200 -82.6926 North 454 522 36,700 600 Climbing FlightAware ADS-B (KMCO)
05:45PM 30.3829 -82.6831 North 452 520 37,000 60 Climbing FlightAware ADS-B (KMCO)
05:47PM 30.6507 -82.6429 North 458 527 37,000  Level FlightAware ADS-B (KMCO)
05:49PM 30.8028 -82.6217 North 445 512 37,000  Level Jacksonville Center
05:50PM 30.9303 -82.6019 North 445 512 37,000 -60 Level Jacksonville Center
05:51PM 31.0575 -82.5847 North 445 512 36,900 -60 Descending Jacksonville Center
05:52PM 31.1806 -82.5647 North 445 512 36,900  Level Jacksonville Center
05:53PM 31.3081 -82.5447 North 445 512 37,000  Climbing Jacksonville Center
05:54PM 31.4311 -82.5225 North 445 512 37,000  Level Jacksonville Center
05:55PM 31.6269 -82.5389 356° North 437 503 37,000  Level Atlanta Center
05:56PM 31.7358 -82.5739 345° North 422 486 37,000  Level Atlanta Center
05:57PM 31.8447 -82.6111 344° North 410 472 37,000  Level Atlanta Center
05:58PM 31.8538 -82.6127 344° North  Level FlightAware Approximate
05:58PM 31.9536 -82.6486 344° North 410 472 37,000  Level Atlanta Center
05:59PM 32.0669 -82.6858 344° North 410 472 37,000  Level Atlanta Center
06:00PM 32.1758 -82.7211 345° North 404 465 37,000  Level Atlanta Center
06:01PM 32.2867 -82.7589 344° North 404 465 37,000  Level Atlanta Center
06:02PM 32.3978 -82.7967 344° North 404 465 37,000  Level Atlanta Center
06:03PM 32.5089 -82.8319 345° North 404 465 37,000  Level Atlanta Center
06:04PM 32.6283 -82.8797 341° North 404 465 37,000  Level Atlanta Center
06:05PM 32.7350 -82.9103 346° North 404 465 37,000  Level Atlanta Center
06:06PM 32.8500 -82.9508 343° North 409 471 37,000  Level Atlanta Center
06:07PM 32.9631 -82.9892 344° North 409 471 37,000  Level Atlanta Center
06:08PM 33.0742 -83.0275 344° North 409 471 37,000  Level Atlanta Center
06:09PM 33.1850 -83.0633 345° North 415 478 37,000  Level Atlanta Center
06:10PM 33.2958 -83.1019 344° North 415 478 37,000  Level Atlanta Center
06:11PM 33.4047 -83.1381 345° North 415 478 37,000  Level Atlanta Center
06:12PM 33.5178 -83.1767 344° North 414 476 37,000  Level Atlanta Center
06:18PM 34.1869 -83.3923 347° North 410 472 37,000  Level FlightAware ADS-B (KDZJ)
06:19PM 34.2654 -83.4148 346° North 411 473 37,000  Level FlightAware ADS-B (KDZJ)
06:20PM 34.3440 -83.4373 346° North 411 473 37,000  Level FlightAware ADS-B (KDZJ)
06:20PM 34.4208 -83.4595 346° North 411 473 37,000  Level FlightAware ADS-B (KDZJ)
06:21PM 34.4961 -83.4810 347° North 411 473 37,000  Level FlightAware ADS-B (KDZJ)
06:22PM 34.5656 -83.5010 346° North 411 473 37,000  Level FlightAware ADS-B (KDZJ)
06:22PM 34.6325 -83.5204 346° North 412 474 37,000  Level FlightAware ADS-B (KDZJ)
06:23PM 34.7220 -83.5464 346° North 414 476 37,000  Level FlightAware ADS-B (KDZJ)
06:24PM 34.7961 -83.5677 346° North 414 476 37,000  Level FlightAware ADS-B (KDZJ)
06:24PM 34.8694 -83.5890 346° North 414 476 37,000  Level FlightAware ADS-B (KDZJ)
06:25PM 34.9507 -83.6125 346° North 414 476 37,000  Level FlightAware ADS-B (KDZJ)
06:26PM 35.0298 -83.6357 346° North 415 478 37,000  Level FlightAware ADS-B (KDZJ)
06:26PM 35.1046 -83.6576 347° North 427 491 37,000  Level FlightAware ADS-B (KDZJ)
06:27PM 35.1837 -83.6807 347° North 427 491 37,000  Level FlightAware ADS-B (KDZJ)
06:28PM 35.2590 -83.7028 347° North 427 491 37,000  Level FlightAware ADS-B (KDZJ)
06:28PM 35.3361 -83.7255 347° North 427 491 37,000  Level FlightAware ADS-B (KDZJ)
06:29PM 35.4128 -83.7480 347° North 427 491 37,000  Level FlightAware ADS-B (KDZJ)
06:30PM 35.4906 -83.7710 347° North 428 493 37,000  Level FlightAware ADS-B (KDZJ)
06:30PM 35.5447 -83.7886 347° North 415 478 37,000  Level Atlanta Center
06:31PM 35.6597 -83.8242 346° North 415 478 37,000  Level Atlanta Center
06:32PM 35.7744 -83.8597 346° North 415 478 37,000 180 Level Atlanta Center
06:33PM 35.9058 -83.8953 348° North 420 483 37,400 480 Climbing Atlanta Center
06:34PM 36.0269 -83.9156 352° North 431 496 38,000 -240 Climbing Atlanta Center
06:36PM 36.1542 -83.9300 355° North 439 505 36,900 -960 Descending Indianapolis Center
06:37PM 36.2736 -83.9478 353° North 439 505 36,000 -480 Descending Indianapolis Center
06:38PM 36.3958 -83.9661 353° North 439 505 36,000  Level Indianapolis Center
06:39PM 36.5319 -83.9872 353° North 440 506 36,000  Level Indianapolis Center
06:40PM 36.6533 -84.0044 354° North 440 506 36,000  Level Indianapolis Center
06:41PM 36.7744 -84.0222 353° North 440 506 36,000  Level Indianapolis Center
06:42PM 36.8983 -84.0419 353° North 440 506 36,000  Level Indianapolis Center
06:43PM 37.0483 -84.0339 North 465 535 36,000  Level Indianapolis Center
06:44PM 37.1769 -84.0228 North 464 534 36,000 -600 Level Indianapolis Center
06:45PM 37.3011 -84.0125 North 452 520 34,800 -960 Descending Indianapolis Center
06:46PM 37.4242 -84.0031 North 441 507 34,000 -420 Descending Indianapolis Center
06:47PM 37.5500 -83.9911 North 446 513 34,000  Level Indianapolis Center
06:48PM 37.6758 -83.9800 North 447 514 34,000 -600 Level Indianapolis Center
06:49PM 37.8250 -83.9683 North 452 520 32,800 -900 Descending Indianapolis Center
06:55PM 38.5621 -83.9038 North 451 519 28,000 -780 Descending FlightAware ADS-B
06:55PM 38.6244 -83.8983 North 452 520 28,000  Level FlightAware ADS-B
06:56PM 38.6990 -83.8920 North 454 522 28,000  Level FlightAware ADS-B
06:56PM 38.7600 -83.8865 North 453 521 28,000  Level FlightAware ADS-B
06:57PM 38.8362 -83.8796 North 451 519 28,000  Level FlightAware ADS-B
06:58PM 38.9431 -83.8701 North 451 519 28,000  Level FlightAware ADS-B
06:58PM 39.0234 -83.8629 North 451 519 28,000  Level FlightAware ADS-B
06:59PM 39.0948 -83.8566 North 451 519 28,000  Level FlightAware ADS-B
07:00PM 39.1569 -83.8510 North 450 518 28,000 -480 Level FlightAware ADS-B
07:00PM 39.2430 -83.8431 North 447 514 27,500 -780 Descending FlightAware ADS-B
07:01PM 39.3817 -83.8303 North 448 516 26,500 -600 Descending Indianapolis Center
07:08PM 40.1120 -83.7645 North 427 491 23,400 -660 Descending FlightAware ADS-B
07:09PM 40.3401 -83.7435 North 414 476 21,700 -1,020 Descending FlightAware ADS-B
07:10PM 40.3925 -83.7381 North 416 479 21,000 -1,500 Descending Cleveland Center
07:11PM 40.4828 -83.7300 North 413 475 19,600 -1,800 Descending Indianapolis Center
07:12PM 40.5939 -83.7183 North 404 465 17,700 -1,260 Descending Indianapolis Center
07:13PM 40.7022 -83.7108 North 395 455 17,000 -480 Descending Indianapolis Center
07:14PM 40.8314 -83.6969 North 392 451 16,800 -1,980 Descending Indianapolis Center
07:15PM 40.9361 -83.6875 North 383 441 13,000 -3,120 Descending Indianapolis Center
07:16PM 41.0397 -83.6778 North 379 436 10,300 -1,800 Descending Indianapolis Center
07:17PM 41.1267 -83.6694 North 306 352 9,400 -1,140 Descending Indianapolis Center
07:18PM 41.2050 -83.6669 North 284 327 8,000 -1,320 Descending Indianapolis Center
07:19PM 41.2783 -83.6731 356° North 268 308 6,700 -1,260 Descending Indianapolis Center
07:20PM 41.3553 -83.6767 358° North 268 308 5,400 -1,140 Descending Indianapolis Center
07:21PM 41.4289 -83.6808 358° North 268 308 4,400 -900 Descending Indianapolis Center
07:22PM 41.5125 -83.6858 357° North 263 303 3,600 -840 Descending Indianapolis Center
07:23PM 41.5917 -83.6906 357° North 238 274 2,500 -840 Descending Cleveland Center
07:24PM 41.6117 -83.7322 303° West 185 213 1,700 -480 Descending Cleveland Center
07:26PM 41.6019 -83.7758 253° West 173 199 1,600 -120 Descending Cleveland Center
07:27PM 41.5833 -83.8000 312° West  Level FlightAware Approximate